createdAt,value
2022-09-15T00:01:06.714Z,3.60
2022-09-15T00:03:33.907Z,3.85
2022-09-15T00:06:00.610Z,3.50
2022-09-15T00:08:27.264Z,3.17
2022-09-15T00:10:57.366Z,3.60
2022-09-15T00:13:24.943Z,3.25
2022-09-15T00:15:53.461Z,4.25
2022-09-15T00:18:20.760Z,4.55
2022-09-15T00:20:47.603Z,3.60
2022-09-15T00:23:16.048Z,3.80
2022-09-15T00:25:43.200Z,3.83
2022-09-15T00:28:09.812Z,3.60
2022-09-15T00:30:41.182Z,3.60
2022-09-15T00:33:09.445Z,4.13
2022-09-15T00:35:37.850Z,3.83
2022-09-15T00:38:04.441Z,3.60
2022-09-15T00:40:31.129Z,3.70
2022-09-15T00:42:57.974Z,3.83
2022-09-15T00:45:24.721Z,4.05
2022-09-15T00:47:52.305Z,3.90
2022-09-15T00:50:21.429Z,3.92
2022-09-15T00:52:52.648Z,4.70
2022-09-15T00:55:23.892Z,3.58
2022-09-15T00:57:55.526Z,3.60
2022-09-15T01:00:24.396Z,3.50
2022-09-15T01:02:51.198Z,3.95
2022-09-15T01:05:21.990Z,3.80
2022-09-15T01:07:58.352Z,4.10
2022-09-15T01:10:27.760Z,3.47
2022-09-15T01:12:57.217Z,4.43
2022-09-15T01:15:28.556Z,3.97
2022-09-15T01:18:09.343Z,3.80
2022-09-15T01:20:56.168Z,4.97
2022-09-15T01:23:54.690Z,4.18
2022-09-15T01:26:49.868Z,4.47
2022-09-15T01:29:52.275Z,3.90
2022-09-15T01:32:23.398Z,4.50
2022-09-15T01:35:00.182Z,4.03
2022-09-15T01:37:31.382Z,4.60
2022-09-15T01:40:00.806Z,4.47
2022-09-15T01:42:30.208Z,5.22
2022-09-15T01:45:03.215Z,3.70
2022-09-15T01:47:30.766Z,4.25
2022-09-15T01:50:02.494Z,4.68
2022-09-15T01:52:30.557Z,4.40
2022-09-15T01:55:05.023Z,4.28
2022-09-15T01:57:31.656Z,3.78
2022-09-15T02:00:00.026Z,4.93
2022-09-15T02:02:30.760Z,4.10
2022-09-15T02:05:01.644Z,4.00
2022-09-15T02:07:38.357Z,4.07
2022-09-15T02:10:11.166Z,3.67
2022-09-15T02:12:45.702Z,3.80
2022-09-15T02:15:17.225Z,3.90
2022-09-15T02:17:47.657Z,3.60
2022-09-15T02:20:20.019Z,4.15
2022-09-15T02:22:49.589Z,4.13
2022-09-15T02:25:19.329Z,3.40
2022-09-15T02:27:50.110Z,3.75
2022-09-15T02:30:19.504Z,3.85
2022-09-15T02:32:51.569Z,3.42
2022-09-15T02:35:18.504Z,4.25
2022-09-15T02:37:45.847Z,3.63
2022-09-15T02:40:12.927Z,3.75
2022-09-15T02:42:39.557Z,3.20
2022-09-15T02:45:07.195Z,3.47
2022-09-15T02:47:35.175Z,3.78
2022-09-15T02:50:01.735Z,3.90
2022-09-15T02:52:28.295Z,4.82
2022-09-15T02:54:54.917Z,3.70
2022-09-15T02:57:21.537Z,4.07
2022-09-15T02:59:48.154Z,3.88
2022-09-15T03:02:14.949Z,4.10
2022-09-15T03:04:42.919Z,4.55
2022-09-15T03:07:09.513Z,4.03
2022-09-15T03:09:36.067Z,3.38
2022-09-15T03:12:02.709Z,4.28
2022-09-15T03:14:29.581Z,4.07
2022-09-15T03:16:56.440Z,3.40
2022-09-15T03:19:22.992Z,3.70
2022-09-15T03:21:51.017Z,3.55
2022-09-15T03:24:17.987Z,4.15
2022-09-15T03:26:44.597Z,3.25
2022-09-15T03:29:11.260Z,3.13
2022-09-15T03:31:38.213Z,3.83
2022-09-15T03:34:04.886Z,3.55
2022-09-15T03:36:31.496Z,4.75
2022-09-15T03:39:00.029Z,3.72
2022-09-15T03:41:27.090Z,3.88
2022-09-15T03:43:53.840Z,3.70
2022-09-15T03:46:20.680Z,3.78
2022-09-15T03:48:47.277Z,3.40
2022-09-15T03:51:14.490Z,4.18
2022-09-15T03:53:41.983Z,3.72
2022-09-15T03:56:13.641Z,3.70
2022-09-15T03:58:40.271Z,4.13
2022-09-15T04:01:06.911Z,3.88
2022-09-15T04:03:33.584Z,3.53
2022-09-15T04:06:00.250Z,3.40
2022-09-15T04:08:26.948Z,4.35
2022-09-15T04:10:53.584Z,3.75
2022-09-15T04:13:26.653Z,4.32
2022-09-15T04:15:59.014Z,3.50
2022-09-15T04:18:25.679Z,4.55
2022-09-15T04:20:52.298Z,3.58
2022-09-15T04:23:18.883Z,3.80
2022-09-15T04:25:54.721Z,4.35
2022-09-15T04:28:22.790Z,3.75
2022-09-15T04:30:49.407Z,4.32
2022-09-15T04:33:15.956Z,3.70
2022-09-15T04:35:42.621Z,4.00
2022-09-15T04:38:09.232Z,4.22
2022-09-15T04:40:35.979Z,4.22
2022-09-15T04:43:02.801Z,4.45
2022-09-15T04:45:30.697Z,4.03
2022-09-15T04:47:57.347Z,4.68
2022-09-15T04:50:23.973Z,4.72
2022-09-15T04:52:50.591Z,4.82
2022-09-15T04:55:17.149Z,5.60
2022-09-15T04:57:43.745Z,5.50
2022-09-15T05:00:11.797Z,5.18
2022-09-15T05:02:39.764Z,4.22
2022-09-15T05:05:06.991Z,5.18
2022-09-15T05:07:33.502Z,4.45
2022-09-15T05:10:00.024Z,4.85
2022-09-15T05:12:26.559Z,5.32
2022-09-15T05:14:53.849Z,6.00
2022-09-15T05:17:22.314Z,5.13
2022-09-15T05:19:53.098Z,4.97
2022-09-15T05:22:19.707Z,5.57
2022-09-15T05:24:46.925Z,5.30
2022-09-15T05:27:13.477Z,5.22
2022-09-15T05:29:40.131Z,5.10
2022-09-15T05:32:06.716Z,4.57
2022-09-15T05:34:33.440Z,5.85
2022-09-15T05:37:01.524Z,5.22
2022-09-15T05:39:28.226Z,5.70
2022-09-15T05:41:54.891Z,4.60
2022-09-15T05:44:21.582Z,5.45
2022-09-15T05:46:48.766Z,4.93
2022-09-15T05:49:15.888Z,5.40
2022-09-15T05:51:42.526Z,5.65
2022-09-15T05:54:10.389Z,5.22
2022-09-15T05:56:36.960Z,5.05
2022-09-15T05:59:03.636Z,5.43
2022-09-15T06:01:30.917Z,5.28
2022-09-15T06:03:58.213Z,5.05
2022-09-15T06:06:26.054Z,5.38
2022-09-15T06:08:58.102Z,4.97
2022-09-15T06:11:28.547Z,5.60
2022-09-15T06:13:55.196Z,5.50
2022-09-15T06:16:23.154Z,4.80
2022-09-15T06:18:51.769Z,5.60
2022-09-15T06:21:19.902Z,5.10
2022-09-15T06:23:50.620Z,5.18
2022-09-15T06:26:18.939Z,4.82
2022-09-15T06:28:50.295Z,4.57
2022-09-15T06:31:17.480Z,4.15
2022-09-15T06:33:45.364Z,3.90
2022-09-15T06:36:12.461Z,4.13
2022-09-15T06:38:39.489Z,5.03
2022-09-15T06:41:07.049Z,3.70
2022-09-15T06:43:34.276Z,4.28
2022-09-15T06:46:07.659Z,4.70
2022-09-15T06:48:34.441Z,4.10
2022-09-15T06:51:02.094Z,4.45
2022-09-15T06:53:29.685Z,4.38
2022-09-15T06:56:01.828Z,3.47
2022-09-15T06:58:28.404Z,4.10
2022-09-15T07:00:55.260Z,4.25
2022-09-15T07:03:23.311Z,4.55
2022-09-15T07:05:50.006Z,3.67
2022-09-15T07:08:16.609Z,3.83
2022-09-15T07:10:44.086Z,3.50
2022-09-15T07:13:10.784Z,4.47
2022-09-15T07:15:37.364Z,3.40
2022-09-15T07:18:04.122Z,3.72
2022-09-15T07:20:32.109Z,3.03
2022-09-15T07:22:58.780Z,3.50
2022-09-15T07:25:25.465Z,3.20
2022-09-15T07:27:52.019Z,3.50
2022-09-15T07:30:18.617Z,3.67
2022-09-15T07:32:45.229Z,3.03
2022-09-15T07:35:11.747Z,3.15
2022-09-15T07:37:39.768Z,3.50
2022-09-15T07:40:07.649Z,3.65
2022-09-15T07:42:35.546Z,3.38
2022-09-15T07:45:02.366Z,2.90
2022-09-15T07:47:28.951Z,3.10
2022-09-15T07:49:55.513Z,3.63
2022-09-15T07:52:22.066Z,2.70
2022-09-15T07:54:50.101Z,2.63
2022-09-15T07:57:16.823Z,3.45
2022-09-15T07:59:43.381Z,2.78
2022-09-15T08:02:16.442Z,3.22
2022-09-15T08:04:43.221Z,2.55
2022-09-15T08:07:10.008Z,2.83
2022-09-15T08:09:36.817Z,2.85
2022-09-15T08:12:06.483Z,2.88
2022-09-15T08:14:33.722Z,3.42
2022-09-15T08:17:01.010Z,2.30
2022-09-15T08:19:27.725Z,3.75
2022-09-15T08:21:54.597Z,3.13
2022-09-15T08:24:21.580Z,2.40
2022-09-15T08:26:48.193Z,3.05
2022-09-15T08:29:16.566Z,2.78
2022-09-15T08:31:43.232Z,2.38
2022-09-15T08:34:11.701Z,2.53
2022-09-15T08:36:38.624Z,2.50
2022-09-15T08:39:05.397Z,2.30
2022-09-15T08:41:35.295Z,2.65
2022-09-15T08:44:10.960Z,2.42
2022-09-15T08:46:43.071Z,2.47
2022-09-15T08:49:13.004Z,2.55
2022-09-15T08:51:46.073Z,2.53
2022-09-15T08:54:19.731Z,2.88
2022-09-15T08:56:47.788Z,2.75
2022-09-15T08:59:15.941Z,2.45
2022-09-15T09:02:02.073Z,2.47
2022-09-15T09:04:43.093Z,2.40
2022-09-15T09:07:26.710Z,2.90
2022-09-15T09:09:59.385Z,2.63
2022-09-15T09:12:46.263Z,2.73
2022-09-15T09:15:25.247Z,1.98
2022-09-15T09:18:16.312Z,2.28
2022-09-15T09:20:52.575Z,1.75
2022-09-15T09:23:23.496Z,2.28
2022-09-15T09:25:50.760Z,2.35
2022-09-15T09:28:28.864Z,1.67
2022-09-15T09:30:58.288Z,2.42
2022-09-15T09:33:30.519Z,1.92
2022-09-15T09:35:59.852Z,1.95
2022-09-15T09:38:30.365Z,1.70
2022-09-15T09:41:01.932Z,1.60
2022-09-15T09:43:30.947Z,1.75
2022-09-15T09:45:57.850Z,1.30
2022-09-15T09:48:27.434Z,1.90
2022-09-15T09:50:54.312Z,1.35
2022-09-15T09:53:27.354Z,1.48
2022-09-15T09:55:54.835Z,1.70
2022-09-15T10:01:40.992Z,2.15
2022-09-15T10:07:33.961Z,2.08
2022-09-15T10:10:01.759Z,1.20
2022-09-15T10:12:34.363Z,1.30
2022-09-15T10:15:02.969Z,1.37
2022-09-15T10:17:41.222Z,1.30
2022-09-15T10:20:23.707Z,1.40
2022-09-15T10:23:01.111Z,1.35
2022-09-15T10:25:55.169Z,1.15
2022-09-15T10:28:22.186Z,1.13
2022-09-15T10:31:03.579Z,1.02
2022-09-15T10:33:32.426Z,0.93
2022-09-15T10:36:05.400Z,1.40
2022-09-15T10:38:40.071Z,1.10
2022-09-15T10:41:17.297Z,1.17
2022-09-15T10:43:55.566Z,1.00
2022-09-15T10:46:27.061Z,1.10
2022-09-15T10:49:07.396Z,1.38
2022-09-15T10:51:45.952Z,1.25
2022-09-15T10:54:34.774Z,1.08
2022-09-15T10:57:07.584Z,0.90
2022-09-15T10:59:42.637Z,1.65
2022-09-15T11:02:23.295Z,0.93
2022-09-15T11:05:04.693Z,1.00
2022-09-15T11:07:39.929Z,0.90
2022-09-15T11:10:16.704Z,0.98
2022-09-15T11:13:00.135Z,1.00
2022-09-15T11:15:42.527Z,1.00
2022-09-15T11:18:40.438Z,1.08
2022-09-15T11:21:27.456Z,0.82
2022-09-15T11:24:13.227Z,0.85
2022-09-15T11:26:45.642Z,0.95
2022-09-15T11:29:20.026Z,0.90
2022-09-15T11:31:52.298Z,0.80
2022-09-15T11:34:24.704Z,0.88
2022-09-15T11:36:56.870Z,1.20
2022-09-15T11:39:25.898Z,1.20
2022-09-15T11:41:58.739Z,1.00
2022-09-15T11:44:30.226Z,1.27
2022-09-15T11:47:05.450Z,0.98
2022-09-15T11:49:39.042Z,1.20
2022-09-15T11:52:14.423Z,1.35
2022-09-15T11:54:46.517Z,1.10
2022-09-15T11:57:20.282Z,1.98
2022-09-15T11:59:53.404Z,1.60
2022-09-15T12:02:31.733Z,1.17
2022-09-15T12:05:07.423Z,1.40
2022-09-15T12:07:40.633Z,0.90
2022-09-15T12:10:15.148Z,1.77
2022-09-15T12:12:44.425Z,1.60
2022-09-15T12:15:16.301Z,1.67
2022-09-15T12:17:50.735Z,1.92
2022-09-15T12:20:23.138Z,1.35
2022-09-15T12:22:55.443Z,1.70
2022-09-15T12:25:26.236Z,1.63
2022-09-15T12:31:25.245Z,1.13
2022-09-15T12:33:56.838Z,1.55
2022-09-15T12:36:41.692Z,1.23
2022-09-15T12:39:24.068Z,1.25
2022-09-15T12:41:52.836Z,0.85
2022-09-15T12:44:25.048Z,1.00
2022-09-15T12:46:55.258Z,0.90
2022-09-15T12:49:28.049Z,1.38
2022-09-15T12:51:55.240Z,0.95
2022-09-15T12:54:26.182Z,0.85
2022-09-15T12:56:54.694Z,1.17
2022-09-15T12:59:24.607Z,0.77
2022-09-15T13:01:53.300Z,1.35
2022-09-15T13:04:44.800Z,1.20
2022-09-15T13:07:36.391Z,1.00
2022-09-15T13:10:30.201Z,1.02
2022-09-15T13:13:10.444Z,1.00
2022-09-15T13:15:43.300Z,1.20
2022-09-15T13:18:13.607Z,0.90
2022-09-15T13:20:48.525Z,1.05
2022-09-15T13:23:16.438Z,1.23
2022-09-15T13:25:45.562Z,1.00
2022-09-15T13:28:22.834Z,0.75
2022-09-15T13:31:09.882Z,1.00
2022-09-15T13:40:32.912Z,0.65
2022-09-15T13:43:31.986Z,1.20
2022-09-15T13:46:14.791Z,1.00
2022-09-15T13:48:50.017Z,0.70
2022-09-15T13:51:24.366Z,1.25
2022-09-15T13:53:54.297Z,1.00
2022-09-15T13:56:26.322Z,0.70
2022-09-15T13:59:00.189Z,1.30
2022-09-15T14:01:35.270Z,0.90
2022-09-15T14:04:07.156Z,1.38
2022-09-15T14:06:37.739Z,0.95
2022-09-15T14:09:11.650Z,1.10
2022-09-15T14:11:39.455Z,0.85
2022-09-15T14:14:10.850Z,0.95
2022-09-15T14:16:38.679Z,1.00
2022-09-15T14:19:32.322Z,0.95
2022-09-15T14:22:01.011Z,0.90
2022-09-15T14:24:30.159Z,0.98
2022-09-15T14:26:59.408Z,1.15
2022-09-15T14:29:27.153Z,0.80
2022-09-15T14:31:59.089Z,0.93
2022-09-15T14:34:30.081Z,1.52
2022-09-15T14:37:03.209Z,1.30
2022-09-15T14:39:30.601Z,1.17
2022-09-15T14:41:57.304Z,0.60
2022-09-15T14:47:19.926Z,0.88
2022-09-15T14:49:46.710Z,0.52
2022-09-15T14:52:26.120Z,0.73
2022-09-15T14:54:58.339Z,0.70
2022-09-15T14:57:56.616Z,0.40
2022-09-15T15:00:28.051Z,0.80
2022-09-15T15:03:04.010Z,0.63
2022-09-15T15:05:35.361Z,0.50
2022-09-15T15:08:06.286Z,0.60
2022-09-15T15:10:35.854Z,0.55
2022-09-15T15:13:08.012Z,0.40
2022-09-15T15:15:37.921Z,0.90
2022-09-15T15:18:30.873Z,1.00
2022-09-15T15:23:28.330Z,0.60
2022-09-15T15:26:32.807Z,0.57
2022-09-15T15:29:01.172Z,0.40
2022-09-15T15:31:29.062Z,0.82
2022-09-15T15:33:58.141Z,0.70
2022-09-15T15:36:26.859Z,0.70
2022-09-15T15:38:56.832Z,0.50
2022-09-15T15:41:26.050Z,0.60
2022-09-15T15:43:59.319Z,0.47
2022-09-15T15:46:48.476Z,0.45
2022-09-15T15:49:15.688Z,0.68
2022-09-15T15:51:42.431Z,0.70
2022-09-15T15:54:09.276Z,0.50
2022-09-15T15:56:37.980Z,0.80
2022-09-15T15:59:05.107Z,0.63
2022-09-15T16:01:33.291Z,0.70
2022-09-15T16:04:01.373Z,0.60
2022-09-15T16:06:28.180Z,0.88
2022-09-15T16:09:01.406Z,1.38
2022-09-15T16:11:28.077Z,1.02
2022-09-15T16:13:54.680Z,1.13
2022-09-15T16:16:23.507Z,1.00
2022-09-15T16:18:51.281Z,1.10
2022-09-15T16:21:21.515Z,0.75
2022-09-15T16:23:48.134Z,0.70
2022-09-15T16:26:17.660Z,0.70
2022-09-15T16:28:44.527Z,0.98
2022-09-15T16:31:13.031Z,0.80
2022-09-15T16:33:39.930Z,0.77
2022-09-15T16:36:09.774Z,0.60
2022-09-15T16:38:38.431Z,0.80
2022-09-15T16:41:13.263Z,1.10
2022-09-15T16:43:39.969Z,0.77
2022-09-15T16:46:08.571Z,1.08
2022-09-15T16:48:35.420Z,1.35
2022-09-15T16:51:23.027Z,1.20
2022-09-15T16:53:50.529Z,1.60
2022-09-15T16:56:17.608Z,1.05
2022-09-15T16:58:44.569Z,0.80
2022-09-15T17:01:17.499Z,1.02
2022-09-15T17:03:44.347Z,0.70
2022-09-15T17:06:13.495Z,0.80
2022-09-15T17:08:40.503Z,1.00
2022-09-15T17:11:16.251Z,1.00
2022-09-15T17:13:45.853Z,0.68
2022-09-15T17:16:14.996Z,4.15
2022-09-15T17:18:41.761Z,1.67
2022-09-15T17:21:10.076Z,0.82
2022-09-15T17:23:39.653Z,0.98
2022-09-15T17:26:11.810Z,1.20
2022-09-15T17:28:38.527Z,1.00
2022-09-15T17:31:12.026Z,1.00
2022-09-15T17:36:05.978Z,0.95
2022-09-15T17:38:32.654Z,0.57
2022-09-15T17:40:59.326Z,0.70
2022-09-15T17:43:29.111Z,0.60
2022-09-15T17:45:59.001Z,0.80
2022-09-15T17:48:26.094Z,0.60
2022-09-15T17:50:52.794Z,0.70
2022-09-15T17:53:21.358Z,0.85
2022-09-15T17:55:48.617Z,0.60
2022-09-15T17:58:15.590Z,0.77
2022-09-15T18:00:44.622Z,0.60
2022-09-15T18:03:18.560Z,0.90
2022-09-15T18:05:45.458Z,0.88
2022-09-15T18:08:12.181Z,0.82
2022-09-15T18:10:38.888Z,0.70
2022-09-15T18:13:06.256Z,0.80
2022-09-15T18:15:35.386Z,1.42
2022-09-15T18:18:04.376Z,0.98
2022-09-15T18:20:32.825Z,0.70
2022-09-15T18:23:04.545Z,0.80
2022-09-15T18:25:33.307Z,1.23
2022-09-15T18:28:01.283Z,1.50
2022-09-15T18:30:30.787Z,1.23
2022-09-15T18:32:58.257Z,0.82
2022-09-15T18:35:26.725Z,0.80
2022-09-15T18:37:55.982Z,1.00
2022-09-15T18:40:23.125Z,0.90
2022-09-15T18:42:49.840Z,1.05
2022-09-15T18:45:18.654Z,1.75
2022-09-15T18:47:47.363Z,1.60
2022-09-15T18:50:14.522Z,1.60
2022-09-15T18:52:42.668Z,1.80
2022-09-15T18:55:12.617Z,1.17
2022-09-15T18:57:40.061Z,1.30
2022-09-15T19:00:10.712Z,1.75
2022-09-15T19:02:37.497Z,1.00
2022-09-15T19:05:05.109Z,1.23
2022-09-15T19:07:31.812Z,1.23
2022-09-15T19:09:59.864Z,0.75
2022-09-15T19:12:26.541Z,1.00
2022-09-15T19:14:53.234Z,0.88
2022-09-15T19:17:19.843Z,1.02
2022-09-15T19:19:46.496Z,0.95
2022-09-15T19:22:13.591Z,1.20
2022-09-15T19:24:40.260Z,1.42
2022-09-15T19:27:08.995Z,0.80
2022-09-15T19:29:37.138Z,1.40
2022-09-15T19:32:06.614Z,0.80
2022-09-15T19:34:33.984Z,0.88
2022-09-15T19:37:00.664Z,1.15
2022-09-15T19:39:27.418Z,1.00
2022-09-15T19:41:54.441Z,1.08
2022-09-15T19:44:22.847Z,0.80
2022-09-15T19:46:49.858Z,0.68
2022-09-15T19:49:16.664Z,0.52
2022-09-15T19:51:43.339Z,0.65
2022-09-15T19:54:10.443Z,1.17
2022-09-15T19:56:37.940Z,2.30
2022-09-15T19:59:05.697Z,0.70
2022-09-15T20:01:33.684Z,0.85
2022-09-15T20:04:00.408Z,1.02
2022-09-15T20:06:31.688Z,0.98
2022-09-15T20:08:59.439Z,0.90
2022-09-15T20:11:27.348Z,1.00
2022-09-15T20:13:55.189Z,0.80
2022-09-15T20:16:23.568Z,0.90
2022-09-15T20:18:53.700Z,1.48
2022-09-15T20:21:45.940Z,0.77
2022-09-15T20:24:08.869Z,1.08
2022-09-15T20:26:35.454Z,1.15
2022-09-15T20:29:02.856Z,0.70
2022-09-15T20:31:30.511Z,0.80
2022-09-15T20:33:59.219Z,0.80
2022-09-15T20:36:27.753Z,0.63
2022-09-15T20:38:55.224Z,0.80
2022-09-15T20:41:24.060Z,1.05
2022-09-15T20:43:51.212Z,1.20
2022-09-15T20:46:19.990Z,0.75
2022-09-15T20:48:47.168Z,1.00
2022-09-15T20:51:16.875Z,1.10
2022-09-15T20:53:45.254Z,2.00
2022-09-15T20:56:12.368Z,0.73
2022-09-15T20:58:39.486Z,0.93
2022-09-15T21:01:08.338Z,1.38
2022-09-15T21:03:36.714Z,1.00
2022-09-15T21:06:05.303Z,0.75
2022-09-15T21:08:34.073Z,1.20
2022-09-15T21:11:00.682Z,1.52
2022-09-15T21:13:28.693Z,1.10
2022-09-15T21:15:56.172Z,1.40
2022-09-15T21:18:23.054Z,0.75
2022-09-15T21:20:54.832Z,0.90
2022-09-15T21:23:21.473Z,0.93
2022-09-15T21:26:01.186Z,0.90
2022-09-15T21:28:28.939Z,1.05
2022-09-15T21:31:01.335Z,1.05
2022-09-15T21:33:27.915Z,1.27
2022-09-15T21:36:02.156Z,1.60
2022-09-15T21:38:28.739Z,1.00
2022-09-15T21:40:56.726Z,1.17
2022-09-15T21:43:23.439Z,1.13
2022-09-15T21:45:55.183Z,0.90
2022-09-15T21:48:21.981Z,0.88
2022-09-15T21:50:52.131Z,1.15
2022-09-15T21:53:19.006Z,0.88
2022-09-15T21:55:45.836Z,1.08
2022-09-15T21:58:14.012Z,1.25
2022-09-15T22:00:40.648Z,1.10
2022-09-15T22:03:07.169Z,0.95
2022-09-15T22:05:33.770Z,1.50
2022-09-15T22:08:04.702Z,0.95
2022-09-15T22:10:31.582Z,0.85
2022-09-15T22:12:58.126Z,0.98
2022-09-15T22:15:26.144Z,1.10
2022-09-15T22:17:53.006Z,1.08
2022-09-15T22:20:19.546Z,1.40
2022-09-15T22:22:46.131Z,1.27
2022-09-15T22:25:14.524Z,0.98
2022-09-15T22:27:43.231Z,1.17
2022-09-15T22:30:12.186Z,1.20
2022-09-15T22:32:40.152Z,1.02
2022-09-15T22:35:07.818Z,1.15
2022-09-15T22:37:34.698Z,0.75
2022-09-15T22:40:01.788Z,1.00
2022-09-15T22:42:28.388Z,0.88
2022-09-15T22:44:55.100Z,1.00
2022-09-15T22:47:21.610Z,1.08
2022-09-15T22:49:49.583Z,1.00
2022-09-15T22:52:16.173Z,1.33
2022-09-15T22:54:42.738Z,1.00
2022-09-15T22:57:09.309Z,0.90
2022-09-15T22:59:35.863Z,1.30
2022-09-15T23:02:02.542Z,1.50
2022-09-15T23:04:29.329Z,1.00
2022-09-15T23:06:57.262Z,1.40
2022-09-15T23:09:23.772Z,1.05
2022-09-15T23:11:50.328Z,0.85
2022-09-15T23:14:17.198Z,0.88
2022-09-15T23:16:44.303Z,0.90
2022-09-15T23:19:12.287Z,1.10
2022-09-15T23:21:38.901Z,1.15
2022-09-15T23:24:07.197Z,0.70
2022-09-15T23:26:33.780Z,1.80
2022-09-15T23:29:00.279Z,1.00
2022-09-15T23:31:27.058Z,1.00
2022-09-15T23:33:53.707Z,0.95
2022-09-15T23:36:20.314Z,1.30
2022-09-15T23:38:47.991Z,0.70
2022-09-15T23:41:17.362Z,0.98
2022-09-15T23:43:43.942Z,0.77
2022-09-15T23:46:10.560Z,0.90
2022-09-15T23:48:37.724Z,0.90
2022-09-15T23:51:05.250Z,1.02
2022-09-15T23:53:31.951Z,0.98
2022-09-15T23:55:58.803Z,1.33
2022-09-15T23:58:27.363Z,1.55
